sensor_id;sensor_type;location;lat;lon;timestamp;pressure;altitude;pressure_sealevel;temperature;humidity
6389;BME280;3227;42.654;23.360;2023-04-07T00:00:26;94108.66;;;5.31;48.03
6389;BME280;3227;42.654;23.360;2023-04-07T00:02:53;94142.13;;;5.66;46.68
6389;BME280;3227;42.654;23.360;2023-04-07T00:05:21;94157.41;;;5.69;46.91
6389;BME280;3227;42.654;23.360;2023-04-07T00:07:48;94149.84;;;5.73;47.08
6389;BME280;3227;42.654;23.360;2023-04-07T00:10:15;94146.50;;;5.76;46.46
6389;BME280;3227;42.654;23.360;2023-04-07T00:12:41;94152.31;;;5.69;45.96
6389;BME280;3227;42.654;23.360;2023-04-07T00:15:09;94154.84;;;5.67;46.59
6389;BME280;3227;42.654;23.360;2023-04-07T00:17:35;94148.84;;;5.62;46.42
6389;BME280;3227;42.654;23.360;2023-04-07T00:20:03;94152.31;;;5.69;46.12
6389;BME280;3227;42.654;23.360;2023-04-07T00:22:31;94149.91;;;5.80;46.14
6389;BME280;3227;42.654;23.360;2023-04-07T00:24:58;94146.44;;;5.73;45.29
6389;BME280;3227;42.654;23.360;2023-04-07T00:27:24;94145.28;;;5.48;46.66
6389;BME280;3227;42.654;23.360;2023-04-07T00:29:51;94152.22;;;5.60;46.91
6389;BME280;3227;42.654;23.360;2023-04-07T00:32:19;94142.94;;;5.63;46.44
6389;BME280;3227;42.654;23.360;2023-04-07T00:34:46;94144.72;;;5.70;46.17
6389;BME280;3227;42.654;23.360;2023-04-07T00:37:13;94148.13;;;5.72;45.84
6389;BME280;3227;42.654;23.360;2023-04-07T00:39:41;94148.09;;;5.69;46.08
6389;BME280;3227;42.654;23.360;2023-04-07T00:42:08;94143.03;;;5.72;45.60
6389;BME280;3227;42.654;23.360;2023-04-07T00:44:35;94147.13;;;5.58;45.28
6389;BME280;3227;42.654;23.360;2023-04-07T00:47:02;94151.22;;;5.49;45.70
6389;BME280;3227;42.654;23.360;2023-04-07T00:49:29;94104.22;;;5.16;46.24
6389;BME280;3227;42.654;23.360;2023-04-07T00:51:56;94144.09;;;5.22;46.13
6389;BME280;3227;42.654;23.360;2023-04-07T00:54:24;94144.88;;;5.18;46.25
6389;BME280;3227;42.654;23.360;2023-04-07T00:56:52;94116.72;;;5.01;46.95
6389;BME280;3227;42.654;23.360;2023-04-07T00:59:19;94120.22;;;5.09;46.47
6389;BME280;3227;42.654;23.360;2023-04-07T01:01:54;94145.84;;;5.26;46.63
6389;BME280;3227;42.654;23.360;2023-04-07T01:04:28;94143.31;;;5.27;45.61
6389;BME280;3227;42.654;23.360;2023-04-07T01:07:03;94143.47;;;5.38;46.46
6389;BME280;3227;42.654;23.360;2023-04-07T01:09:36;94138.41;;;5.40;46.33
6389;BME280;3227;42.654;23.360;2023-04-07T01:12:11;94137.34;;;5.24;45.76
6389;BME280;3227;42.654;23.360;2023-04-07T01:14:50;94141.53;;;5.22;46.23
6389;BME280;3227;42.654;23.360;2023-04-07T01:17:18;94104.19;;;5.13;46.14
6389;BME280;3227;42.654;23.360;2023-04-07T01:19:50;94133.91;;;5.19;45.96
6389;BME280;3227;42.654;23.360;2023-04-07T01:22:22;94133.00;;;5.15;46.42
6389;BME280;3227;42.654;23.360;2023-04-07T01:25:05;94128.53;;;4.99;46.86
6389;BME280;3227;42.654;23.360;2023-04-07T01:27:48;94127.72;;;5.00;46.46
6389;BME280;3227;42.654;23.360;2023-04-07T01:30:22;94130.91;;;4.88;47.37
6389;BME280;3227;42.654;23.360;2023-04-07T01:32:52;94121.69;;;4.93;47.01
6389;BME280;3227;42.654;23.360;2023-04-07T01:35:19;94124.94;;;4.85;47.10
6389;BME280;3227;42.654;23.360;2023-04-07T01:37:47;94087.59;;;4.76;47.54
6389;BME280;3227;42.654;23.360;2023-04-07T01:40:17;94111.66;;;5.04;46.87
6389;BME280;3227;42.654;23.360;2023-04-07T01:42:44;94123.66;;;5.14;46.43
6389;BME280;3227;42.654;23.360;2023-04-07T01:45:14;94125.44;;;5.21;46.48
6389;BME280;3227;42.654;23.360;2023-04-07T01:47:43;94123.97;;;5.37;46.85
6389;BME280;3227;42.654;23.360;2023-04-07T01:50:11;94122.31;;;5.41;46.44
6389;BME280;3227;42.654;23.360;2023-04-07T01:52:39;94124.06;;;5.45;47.17
6389;BME280;3227;42.654;23.360;2023-04-07T01:55:07;94111.41;;;5.48;47.12
6389;BME280;3227;42.654;23.360;2023-04-07T01:57:34;94121.97;;;5.15;52.95
6389;BME280;3227;42.654;23.360;2023-04-07T02:00:01;94123.19;;;4.81;55.15
6389;BME280;3227;42.654;23.360;2023-04-07T02:02:28;94118.16;;;4.84;55.56
6389;BME280;3227;42.654;23.360;2023-04-07T02:05:00;94109.88;;;4.41;57.72
6389;BME280;3227;42.654;23.360;2023-04-07T02:07:34;94102.16;;;4.34;58.54
6389;BME280;3227;42.654;23.360;2023-04-07T02:10:07;94109.66;;;4.29;58.88
6389;BME280;3227;42.654;23.360;2023-04-07T02:12:36;94108.09;;;4.37;58.53
6389;BME280;3227;42.654;23.360;2023-04-07T02:15:07;94112.59;;;4.52;58.17
6389;BME280;3227;42.654;23.360;2023-04-07T02:17:37;94106.91;;;4.67;58.56
6389;BME280;3227;42.654;23.360;2023-04-07T02:20:07;94111.28;;;4.77;57.85
6389;BME280;3227;42.654;23.360;2023-04-07T02:22:36;94110.50;;;4.81;58.94
6389;BME280;3227;42.654;23.360;2023-04-07T02:25:19;94105.00;;;4.53;59.10
6389;BME280;3227;42.654;23.360;2023-04-07T02:27:46;94113.47;;;4.55;59.07
6389;BME280;3227;42.654;23.360;2023-04-07T02:30:14;94083.75;;;4.47;58.86
6389;BME280;3227;42.654;23.360;2023-04-07T02:32:40;94107.00;;;4.74;58.06
6389;BME280;3227;42.654;23.360;2023-04-07T02:35:09;94107.94;;;4.81;57.34
6389;BME280;3227;42.654;23.360;2023-04-07T02:37:35;94106.22;;;4.77;57.91
6389;BME280;3227;42.654;23.360;2023-04-07T02:40:03;94116.44;;;4.83;57.80
6389;BME280;3227;42.654;23.360;2023-04-07T02:42:29;94111.41;;;4.84;58.48
6389;BME280;3227;42.654;23.360;2023-04-07T02:44:56;94113.78;;;4.74;58.28
6389;BME280;3227;42.654;23.360;2023-04-07T02:47:24;94113.78;;;4.74;58.55
6389;BME280;3227;42.654;23.360;2023-04-07T02:49:50;94105.38;;;4.76;58.59
6389;BME280;3227;42.654;23.360;2023-04-07T02:52:19;94107.13;;;4.82;58.29
6389;BME280;3227;42.654;23.360;2023-04-07T02:54:45;94118.69;;;4.65;58.85
6389;BME280;3227;42.654;23.360;2023-04-07T02:57:12;94120.78;;;4.37;60.00
6389;BME280;3227;42.654;23.360;2023-04-07T02:59:40;94116.31;;;4.22;59.63
6389;BME280;3227;42.654;23.360;2023-04-07T03:02:06;94126.28;;;4.12;61.35
6389;BME280;3227;42.654;23.360;2023-04-07T03:04:33;94129.50;;;4.02;61.81
6389;BME280;3227;42.654;23.360;2023-04-07T03:07:00;94136.22;;;4.00;61.99
6389;BME280;3227;42.654;23.360;2023-04-07T03:09:29;94127.00;;;4.03;61.46
6389;BME280;3227;42.654;23.360;2023-04-07T03:11:55;94123.97;;;4.24;61.60
6389;BME280;3227;42.654;23.360;2023-04-07T03:14:22;94131.81;;;4.39;60.79
6389;BME280;3227;42.654;23.360;2023-04-07T03:16:49;94131.91;;;4.45;60.47
6389;BME280;3227;42.654;23.360;2023-04-07T03:19:16;94128.63;;;4.49;60.63
6389;BME280;3227;42.654;23.360;2023-04-07T03:21:43;94129.66;;;4.61;59.91
6389;BME280;3227;42.654;23.360;2023-04-07T03:24:09;94120.50;;;4.72;59.99
6389;BME280;3227;42.654;23.360;2023-04-07T03:26:37;94117.22;;;4.79;59.08
6389;BME280;3227;42.654;23.360;2023-04-07T03:29:04;94109.78;;;4.89;57.04
6389;BME280;3227;42.654;23.360;2023-04-07T03:31:31;94117.63;;;5.06;58.36
6389;BME280;3227;42.654;23.360;2023-04-07T03:33:58;94110.81;;;5.02;57.81
6389;BME280;3227;42.654;23.360;2023-04-07T03:36:25;94120.19;;;5.08;56.84
6389;BME280;3227;42.654;23.360;2023-04-07T03:38:52;94113.34;;;5.02;53.97
6389;BME280;3227;42.654;23.360;2023-04-07T03:41:19;94118.44;;;5.04;53.05
6389;BME280;3227;42.654;23.360;2023-04-07T03:43:47;94107.41;;;5.03;52.80
6389;BME280;3227;42.654;23.360;2023-04-07T03:46:14;94106.44;;;4.92;51.32
6389;BME280;3227;42.654;23.360;2023-04-07T03:48:40;94086.81;;;4.82;50.59
6389;BME280;3227;42.654;23.360;2023-04-07T03:51:07;94120.00;;;4.95;50.22
6389;BME280;3227;42.654;23.360;2023-04-07T03:53:34;94120.09;;;5.03;49.94
6389;BME280;3227;42.654;23.360;2023-04-07T03:56:01;94117.50;;;4.97;48.87
6389;BME280;3227;42.654;23.360;2023-04-07T03:58:28;94114.97;;;4.98;49.70
6389;BME280;3227;42.654;23.360;2023-04-07T04:00:57;94128.69;;;5.10;49.65
6389;BME280;3227;42.654;23.360;2023-04-07T04:03:24;94131.41;;;5.23;48.57
6389;BME280;3227;42.654;23.360;2023-04-07T04:05:50;94110.91;;;5.08;49.33
6389;BME280;3227;42.654;23.360;2023-04-07T04:08:17;94137.59;;;5.44;48.59
6389;BME280;3227;42.654;23.360;2023-04-07T04:10:44;94131.81;;;5.55;48.91
6389;BME280;3227;42.654;23.360;2023-04-07T04:13:12;94139.66;;;5.72;47.84
6389;BME280;3227;42.654;23.360;2023-04-07T04:15:39;94126.75;;;5.57;50.60
6389;BME280;3227;42.654;23.360;2023-04-07T04:18:08;94089.47;;;4.89;53.99
6389;BME280;3227;42.654;23.360;2023-04-07T04:20:34;94141.03;;;4.87;56.26
6389;BME280;3227;42.654;23.360;2023-04-07T04:23:01;94142.44;;;4.70;57.58
6389;BME280;3227;42.654;23.360;2023-04-07T04:25:28;94148.47;;;4.75;58.01
6389;BME280;3227;42.654;23.360;2023-04-07T04:27:55;94139.22;;;4.77;58.85
6389;BME280;3227;42.654;23.360;2023-04-07T04:30:22;94144.88;;;4.62;58.59
6389;BME280;3227;42.654;23.360;2023-04-07T04:32:49;94155.28;;;4.26;61.16
6389;BME280;3227;42.654;23.360;2023-04-07T04:35:17;94154.63;;;3.91;61.88
6389;BME280;3227;42.654;23.360;2023-04-07T04:37:44;94146.25;;;3.94;62.47
6389;BME280;3227;42.654;23.360;2023-04-07T04:40:11;94091.56;;;3.61;61.94
6389;BME280;3227;42.654;23.360;2023-04-07T04:42:39;94154.56;;;3.87;62.27
6389;BME280;3227;42.654;23.360;2023-04-07T04:45:06;94153.59;;;3.81;61.97
6389;BME280;3227;42.654;23.360;2023-04-07T04:47:33;94151.84;;;3.77;61.76
6389;BME280;3227;42.654;23.360;2023-04-07T04:50:00;94161.53;;;3.56;63.01
6389;BME280;3227;42.654;23.360;2023-04-07T04:52:28;94157.47;;;3.64;62.91
6389;BME280;3227;42.654;23.360;2023-04-07T04:54:55;94162.44;;;3.58;62.39
6389;BME280;3227;42.654;23.360;2023-04-07T04:57:22;94167.38;;;3.52;63.33
6389;BME280;3227;42.654;23.360;2023-04-07T04:59:49;94173.75;;;3.75;61.99
6389;BME280;3227;42.654;23.360;2023-04-07T05:02:16;94164.81;;;3.93;61.69
6389;BME280;3227;42.654;23.360;2023-04-07T05:04:43;94175.06;;;3.99;60.56
6389;BME280;3227;42.654;23.360;2023-04-07T05:07:09;94178.69;;;4.13;60.56
6389;BME280;3227;42.654;23.360;2023-04-07T05:09:38;94183.25;;;4.31;59.01
6389;BME280;3227;42.654;23.360;2023-04-07T05:12:05;94179.97;;;4.38;59.07
6389;BME280;3227;42.654;23.360;2023-04-07T05:14:32;94180.34;;;4.57;59.07
6389;BME280;3227;42.654;23.360;2023-04-07T05:16:58;94177.16;;;4.71;58.57
6389;BME280;3227;42.654;23.360;2023-04-07T05:19:26;94174.75;;;4.80;58.44
6389;BME280;3227;42.654;23.360;2023-04-07T05:21:53;94190.28;;;4.98;57.75
6389;BME280;3227;42.654;23.360;2023-04-07T05:24:20;94184.56;;;5.11;57.71
6389;BME280;3227;42.654;23.360;2023-04-07T05:26:48;94192.06;;;5.62;56.02
6389;BME280;3227;42.654;23.360;2023-04-07T05:29:15;94191.94;;;6.20;54.23
6389;BME280;3227;42.654;23.360;2023-04-07T05:31:42;94193.38;;;6.81;52.62
6389;BME280;3227;42.654;23.360;2023-04-07T05:34:09;94192.88;;;7.26;51.08
6389;BME280;3227;42.654;23.360;2023-04-07T05:36:35;94199.16;;;7.78;49.14
6389;BME280;3227;42.654;23.360;2023-04-07T05:39:02;94196.81;;;8.28;48.42
6389;BME280;3227;42.654;23.360;2023-04-07T05:41:29;94184.97;;;8.50;47.79
6389;BME280;3227;42.654;23.360;2023-04-07T05:43:57;94188.38;;;8.57;47.60
6389;BME280;3227;42.654;23.360;2023-04-07T05:46:24;94188.41;;;8.60;47.15
6389;BME280;3227;42.654;23.360;2023-04-07T05:48:51;94195.06;;;8.24;46.88
6389;BME280;3227;42.654;23.360;2023-04-07T05:51:18;94190.72;;;7.96;48.27
6389;BME280;3227;42.654;23.360;2023-04-07T05:53:44;94200.97;;;8.02;48.17
6389;BME280;3227;42.654;23.360;2023-04-07T05:56:11;94203.16;;;7.38;48.53
6389;BME280;3227;42.654;23.360;2023-04-07T05:58:38;94195.16;;;6.88;49.62
6389;BME280;3227;42.654;23.360;2023-04-07T06:01:08;94195.31;;;7.09;49.33
6389;BME280;3227;42.654;23.360;2023-04-07T06:03:35;94192.94;;;7.35;48.47
6389;BME280;3227;42.654;23.360;2023-04-07T06:06:01;94191.19;;;7.28;48.23
6389;BME280;3227;42.654;23.360;2023-04-07T06:08:28;94170.72;;;7.13;48.11
6389;BME280;3227;42.654;23.360;2023-04-07T06:10:55;94187.91;;;7.46;48.08
6389;BME280;3227;42.654;23.360;2023-04-07T06:13:22;94194.91;;;7.80;47.05
6389;BME280;3227;42.654;23.360;2023-04-07T06:15:48;94185.63;;;7.99;46.89
6389;BME280;3227;42.654;23.360;2023-04-07T06:18:17;94187.56;;;8.56;45.65
6389;BME280;3227;42.654;23.360;2023-04-07T06:20:43;94187.53;;;8.47;44.59
6389;BME280;3227;42.654;23.360;2023-04-07T06:23:10;94190.91;;;8.43;44.40
6389;BME280;3227;42.654;23.360;2023-04-07T06:25:37;94187.53;;;8.53;44.76
6389;BME280;3227;42.654;23.360;2023-04-07T06:28:04;94184.13;;;8.45;44.91
6389;BME280;3227;42.654;23.360;2023-04-07T06:30:31;94190.09;;;8.46;44.74
6389;BME280;3227;42.654;23.360;2023-04-07T06:32:58;94185.84;;;8.60;44.55
6389;BME280;3227;42.654;23.360;2023-04-07T06:35:26;94187.53;;;8.39;44.34
6389;BME280;3227;42.654;23.360;2023-04-07T06:37:53;94181.47;;;8.19;44.42
6389;BME280;3227;42.654;23.360;2023-04-07T06:40:20;94177.09;;;7.89;45.55
6389;BME280;3227;42.654;23.360;2023-04-07T06:42:47;94191.69;;;8.22;45.78
6389;BME280;3227;42.654;23.360;2023-04-07T06:45:13;94188.44;;;8.86;45.70
6389;BME280;3227;42.654;23.360;2023-04-07T06:47:40;94192.66;;;8.59;44.89
6389;BME280;3227;42.654;23.360;2023-04-07T06:50:07;94184.97;;;8.58;45.71
6389;BME280;3227;42.654;23.360;2023-04-07T06:52:36;94197.78;;;8.55;45.34
6389;BME280;3227;42.654;23.360;2023-04-07T06:55:03;94190.97;;;8.76;43.85
6389;BME280;3227;42.654;23.360;2023-04-07T06:57:30;94195.28;;;9.12;43.71
6389;BME280;3227;42.654;23.360;2023-04-07T06:59:57;94194.41;;;9.10;44.40
6389;BME280;3227;42.654;23.360;2023-04-07T07:02:23;94180.72;;;9.48;43.49
6389;BME280;3227;42.654;23.360;2023-04-07T07:04:50;94185.88;;;9.31;43.88
6389;BME280;3227;42.654;23.360;2023-04-07T07:07:17;94193.56;;;8.96;45.03
6389;BME280;3227;42.654;23.360;2023-04-07T07:09:45;94203.75;;;8.72;45.21
6389;BME280;3227;42.654;23.360;2023-04-07T07:12:12;94196.97;;;9.10;44.23
6389;BME280;3227;42.654;23.360;2023-04-07T07:14:39;94210.59;;;9.52;43.70
6389;BME280;3227;42.654;23.360;2023-04-07T07:17:06;94213.88;;;9.97;42.82
6389;BME280;3227;42.654;23.360;2023-04-07T07:19:33;94201.03;;;10.27;41.82
6389;BME280;3227;42.654;23.360;2023-04-07T07:22:00;94205.13;;;10.61;42.42
6389;BME280;3227;42.654;23.360;2023-04-07T07:24:28;94204.06;;;10.93;41.19
6389;BME280;3227;42.654;23.360;2023-04-07T07:26:59;94210.84;;;11.03;40.57
6389;BME280;3227;42.654;23.360;2023-04-07T07:29:28;94083.94;;;10.47;40.62
6389;BME280;3227;42.654;23.360;2023-04-07T07:31:55;94215.75;;;11.32;37.53
6389;BME280;3227;42.654;23.360;2023-04-07T07:34:21;94216.78;;;11.05;36.44
6389;BME280;3227;42.654;23.360;2023-04-07T07:36:48;94221.97;;;10.96;35.63
6389;BME280;3227;42.654;23.360;2023-04-07T07:39:15;94216.94;;;10.85;35.06
6389;BME280;3227;42.654;23.360;2023-04-07T07:41:42;94213.53;;;10.83;36.16
6389;BME280;3227;42.654;23.360;2023-04-07T07:44:11;94184.53;;;10.77;35.21
6389;BME280;3227;42.654;23.360;2023-04-07T07:46:37;94216.00;;;10.97;34.66
6389;BME280;3227;42.654;23.360;2023-04-07T07:49:04;94224.59;;;10.88;34.90
6389;BME280;3227;42.654;23.360;2023-04-07T07:51:32;94217.81;;;10.81;35.04
6389;BME280;3227;42.654;23.360;2023-04-07T07:54:00;94176.06;;;10.64;35.40
6389;BME280;3227;42.654;23.360;2023-04-07T07:56:28;94206.06;;;10.45;34.90
6389;BME280;3227;42.654;23.360;2023-04-07T07:58:56;94230.88;;;10.37;35.73
6389;BME280;3227;42.654;23.360;2023-04-07T08:01:24;94215.41;;;10.49;35.73
6389;BME280;3227;42.654;23.360;2023-04-07T08:03:51;94208.34;;;10.88;35.35
6389;BME280;3227;42.654;23.360;2023-04-07T08:06:18;94221.78;;;11.23;34.47
6389;BME280;3227;42.654;23.360;2023-04-07T08:08:46;94224.31;;;11.29;34.02
6389;BME280;3227;42.654;23.360;2023-04-07T08:11:13;94221.00;;;11.18;32.98
6389;BME280;3227;42.654;23.360;2023-04-07T08:13:39;94226.97;;;11.17;34.36
6389;BME280;3227;42.654;23.360;2023-04-07T08:16:09;94226.13;;;11.12;34.32
6389;BME280;3227;42.654;23.360;2023-04-07T08:18:38;94220.94;;;11.24;34.52
6389;BME280;3227;42.654;23.360;2023-04-07T08:21:05;94226.00;;;11.32;33.88
6389;BME280;3227;42.654;23.360;2023-04-07T08:23:32;94220.88;;;11.33;33.03
6389;BME280;3227;42.654;23.360;2023-04-07T08:25:59;94214.94;;;11.25;33.81
6389;BME280;3227;42.654;23.360;2023-04-07T08:28:26;94216.78;;;11.11;35.13
6389;BME280;3227;42.654;23.360;2023-04-07T08:30:52;94222.38;;;11.56;34.14
6389;BME280;3227;42.654;23.360;2023-04-07T08:33:19;94216.19;;;11.81;32.96
6389;BME280;3227;42.654;23.360;2023-04-07T08:35:47;94229.00;;;11.82;33.39
6389;BME280;3227;42.654;23.360;2023-04-07T08:38:14;94225.28;;;12.11;33.12
6389;BME280;3227;42.654;23.360;2023-04-07T08:40:42;94209.09;;;12.03;33.12
6389;BME280;3227;42.654;23.360;2023-04-07T08:43:09;94217.47;;;12.22;32.83
6389;BME280;3227;42.654;23.360;2023-04-07T08:45:40;94222.66;;;12.18;32.76
6389;BME280;3227;42.654;23.360;2023-04-07T08:48:12;94217.81;;;11.90;32.76
6389;BME280;3227;42.654;23.360;2023-04-07T08:50:41;94226.53;;;11.75;33.08
6389;BME280;3227;42.654;23.360;2023-04-07T08:53:12;94176.34;;;11.40;33.57
6389;BME280;3227;42.654;23.360;2023-04-07T08:55:40;94199.13;;;11.71;33.62
6389;BME280;3227;42.654;23.360;2023-04-07T08:58:08;94221.22;;;11.90;33.16
6389;BME280;3227;42.654;23.360;2023-04-07T09:00:37;94220.31;;;11.96;32.81
6389;BME280;3227;42.654;23.360;2023-04-07T09:03:04;94222.84;;;12.02;32.94
6389;BME280;3227;42.654;23.360;2023-04-07T09:05:32;94216.03;;;11.96;33.10
6389;BME280;3227;42.654;23.360;2023-04-07T09:08:05;94222.94;;;11.91;32.11
6389;BME280;3227;42.654;23.360;2023-04-07T09:10:33;94221.31;;;11.79;33.01
6389;BME280;3227;42.654;23.360;2023-04-07T09:13:01;94217.66;;;12.03;31.93
6389;BME280;3227;42.654;23.360;2023-04-07T09:15:29;94214.22;;;12.07;32.99
6389;BME280;3227;42.654;23.360;2023-04-07T09:17:56;94217.81;;;11.91;33.51
6389;BME280;3227;42.654;23.360;2023-04-07T09:20:23;94225.59;;;11.82;32.03
6389;BME280;3227;42.654;23.360;2023-04-07T09:22:50;94212.75;;;11.85;33.45
6389;BME280;3227;42.654;23.360;2023-04-07T09:25:19;94214.97;;;12.17;33.73
6389;BME280;3227;42.654;23.360;2023-04-07T09:27:56;94212.41;;;12.15;31.80
6389;BME280;3227;42.654;23.360;2023-04-07T09:30:23;94204.00;;;12.01;31.98
6389;BME280;3227;42.654;23.360;2023-04-07T09:32:50;94220.84;;;12.27;32.24
6389;BME280;3227;42.654;23.360;2023-04-07T09:35:17;94211.19;;;12.44;32.45
6389;BME280;3227;42.654;23.360;2023-04-07T09:38:00;94211.03;;;12.57;31.76
6389;BME280;3227;42.654;23.360;2023-04-07T09:40:28;94216.97;;;12.61;31.53
6389;BME280;3227;42.654;23.360;2023-04-07T09:42:56;94223.25;;;12.40;32.32
6389;BME280;3227;42.654;23.360;2023-04-07T09:45:24;94227.53;;;12.40;32.47
6389;BME280;3227;42.654;23.360;2023-04-07T09:47:51;94218.94;;;12.42;32.26
6389;BME280;3227;42.654;23.360;2023-04-07T09:50:30;94222.56;;;12.25;32.55
6389;BME280;3227;42.654;23.360;2023-04-07T09:52:59;94236.81;;;11.69;33.51
6389;BME280;3227;42.654;23.360;2023-04-07T09:55:27;94229.19;;;11.60;33.28
6389;BME280;3227;42.654;23.360;2023-04-07T09:57:54;94241.09;;;11.68;34.60
6389;BME280;3227;42.654;23.360;2023-04-07T10:00:23;94238.50;;;11.74;34.63
6389;BME280;3227;42.654;23.360;2023-04-07T10:02:50;94235.00;;;11.83;34.72
6389;BME280;3227;42.654;23.360;2023-04-07T10:05:17;94232.22;;;12.03;33.94
6389;BME280;3227;42.654;23.360;2023-04-07T10:07:46;94236.47;;;12.08;33.66
6389;BME280;3227;42.654;23.360;2023-04-07T10:10:13;94241.47;;;12.19;33.30
6389;BME280;3227;42.654;23.360;2023-04-07T10:12:41;94231.06;;;12.30;33.20
6389;BME280;3227;42.654;23.360;2023-04-07T10:15:11;94233.63;;;12.30;32.45
6389;BME280;3227;42.654;23.360;2023-04-07T10:17:41;94236.09;;;12.39;34.72
6389;BME280;3227;42.654;23.360;2023-04-07T10:20:11;94229.88;;;12.58;33.83
6389;BME280;3227;42.654;23.360;2023-04-07T10:22:40;94245.31;;;12.58;32.12
6389;BME280;3227;42.654;23.360;2023-04-07T10:25:09;94201.84;;;12.40;33.09
6389;BME280;3227;42.654;23.360;2023-04-07T10:27:39;94226.47;;;12.57;32.93
6389;BME280;3227;42.654;23.360;2023-04-07T10:30:17;94230.06;;;12.43;33.24
6389;BME280;3227;42.654;23.360;2023-04-07T10:32:50;94233.97;;;11.99;32.79
6389;BME280;3227;42.654;23.360;2023-04-07T10:35:18;94236.75;;;11.78;33.49
6389;BME280;3227;42.654;23.360;2023-04-07T10:38:09;94242.75;;;11.71;34.20
6389;BME280;3227;42.654;23.360;2023-04-07T10:40:38;94243.69;;;11.67;34.30
6389;BME280;3227;42.654;23.360;2023-04-07T10:43:06;94243.63;;;11.73;34.78
6389;BME280;3227;42.654;23.360;2023-04-07T10:45:54;94241.78;;;11.87;34.94
6389;BME280;3227;42.654;23.360;2023-04-07T10:48:26;94239.06;;;12.04;34.11
6389;BME280;3227;42.654;23.360;2023-04-07T10:51:13;94242.34;;;12.18;33.36
6389;BME280;3227;42.654;23.360;2023-04-07T10:57:04;94247.06;;;12.53;32.76
6389;BME280;3227;42.654;23.360;2023-04-07T10:59:32;94249.72;;;12.44;33.66
6389;BME280;3227;42.654;23.360;2023-04-07T11:02:30;94250.41;;;11.80;34.93
6389;BME280;3227;42.654;23.360;2023-04-07T11:04:59;94253.84;;;11.79;35.86
6389;BME280;3227;42.654;23.360;2023-04-07T11:07:47;94248.72;;;11.79;36.12
6389;BME280;3227;42.654;23.360;2023-04-07T11:10:16;94248.16;;;11.43;35.02
6389;BME280;3227;42.654;23.360;2023-04-07T11:12:44;94254.94;;;11.49;37.13
6389;BME280;3227;42.654;23.360;2023-04-07T11:15:24;94236.03;;;11.59;36.41
6389;BME280;3227;42.654;23.360;2023-04-07T11:18:12;94219.88;;;11.50;37.08
6389;BME280;3227;42.654;23.360;2023-04-07T11:20:45;94255.56;;;11.80;36.45
6389;BME280;3227;42.654;23.360;2023-04-07T11:23:13;94252.88;;;11.92;36.57
6389;BME280;3227;42.654;23.360;2023-04-07T11:25:41;94197.56;;;11.59;36.35
6389;BME280;3227;42.654;23.360;2023-04-07T11:28:10;94252.13;;;11.81;36.06
6389;BME280;3227;42.654;23.360;2023-04-07T11:30:38;94253.66;;;12.00;36.43
6389;BME280;3227;42.654;23.360;2023-04-07T11:33:06;94255.28;;;12.10;37.33
6389;BME280;3227;42.654;23.360;2023-04-07T11:35:34;94262.91;;;12.18;37.27
6389;BME280;3227;42.654;23.360;2023-04-07T11:38:02;94256.84;;;12.20;36.42
6389;BME280;3227;42.654;23.360;2023-04-07T11:40:33;94251.88;;;12.08;36.29
6389;BME280;3227;42.654;23.360;2023-04-07T11:43:01;94263.41;;;11.59;36.41
6389;BME280;3227;42.654;23.360;2023-04-07T11:45:29;94253.91;;;11.70;36.40
6389;BME280;3227;42.654;23.360;2023-04-07T11:47:55;94260.06;;;11.48;36.61
6389;BME280;3227;42.654;23.360;2023-04-07T11:50:41;94222.53;;;11.37;37.78
6389;BME280;3227;42.654;23.360;2023-04-07T11:53:09;94249.75;;;11.55;37.21
6389;BME280;3227;42.654;23.360;2023-04-07T11:55:36;94200.88;;;10.59;37.97
6389;BME280;3227;42.654;23.360;2023-04-07T11:58:06;94249.41;;;10.82;39.70
6389;BME280;3227;42.654;23.360;2023-04-07T12:00:34;94248.47;;;10.98;40.35
6389;BME280;3227;42.654;23.360;2023-04-07T12:03:09;94252.50;;;11.29;40.05
6389;BME280;3227;42.654;23.360;2023-04-07T12:05:42;94244.81;;;11.32;39.13
6389;BME280;3227;42.654;23.360;2023-04-07T12:08:10;94258.59;;;11.16;38.84
6389;BME280;3227;42.654;23.360;2023-04-07T12:10:37;94255.56;;;10.47;40.02
6389;BME280;3227;42.654;23.360;2023-04-07T12:13:05;94256.53;;;10.04;41.62
6389;BME280;3227;42.654;23.360;2023-04-07T12:15:32;94259.03;;;10.33;42.43
6389;BME280;3227;42.654;23.360;2023-04-07T12:17:59;94260.69;;;10.53;40.79
6389;BME280;3227;42.654;23.360;2023-04-07T12:20:27;94251.28;;;10.46;40.36
6389;BME280;3227;42.654;23.360;2023-04-07T12:22:53;94252.91;;;10.65;41.20
6389;BME280;3227;42.654;23.360;2023-04-07T12:25:22;94250.13;;;11.05;40.74
6389;BME280;3227;42.654;23.360;2023-04-07T12:27:49;94252.72;;;10.99;39.11
6389;BME280;3227;42.654;23.360;2023-04-07T12:30:15;94254.78;;;10.33;40.84
6389;BME280;3227;42.654;23.360;2023-04-07T12:32:42;94224.06;;;10.28;42.09
6389;BME280;3227;42.654;23.360;2023-04-07T12:35:09;94255.53;;;10.56;40.13
6389;BME280;3227;42.654;23.360;2023-04-07T12:37:36;94259.91;;;10.24;40.96
6389;BME280;3227;42.654;23.360;2023-04-07T12:40:03;94259.09;;;9.99;41.57
6389;BME280;3227;42.654;23.360;2023-04-07T12:42:31;94260.81;;;9.99;41.82
6389;BME280;3227;42.654;23.360;2023-04-07T12:44:58;94261.72;;;9.49;42.92
6389;BME280;3227;42.654;23.360;2023-04-07T12:47:25;94257.47;;;9.31;43.46
6389;BME280;3227;42.654;23.360;2023-04-07T12:49:52;94260.88;;;9.35;43.59
6389;BME280;3227;42.654;23.360;2023-04-07T12:52:18;94250.66;;;9.42;43.16
6389;BME280;3227;42.654;23.360;2023-04-07T12:54:45;94263.44;;;9.47;43.07
6389;BME280;3227;42.654;23.360;2023-04-07T12:57:12;94258.34;;;9.54;43.46
6389;BME280;3227;42.654;23.360;2023-04-07T12:59:40;94265.09;;;9.81;42.68
6389;BME280;3227;42.654;23.360;2023-04-07T13:02:07;94255.63;;;10.14;42.67
6389;BME280;3227;42.654;23.360;2023-04-07T13:04:34;94266.69;;;10.39;42.27
6389;BME280;3227;42.654;23.360;2023-04-07T13:07:01;94264.91;;;10.57;41.71
6389;BME280;3227;42.654;23.360;2023-04-07T13:09:28;94270.03;;;10.60;41.45
6389;BME280;3227;42.654;23.360;2023-04-07T13:11:54;94272.56;;;10.65;40.99
6389;BME280;3227;42.654;23.360;2023-04-07T13:14:22;94273.56;;;10.17;40.82
6389;BME280;3227;42.654;23.360;2023-04-07T13:16:50;94276.97;;;10.14;41.52
6389;BME280;3227;42.654;23.360;2023-04-07T13:19:16;94271.00;;;10.23;41.55
6389;BME280;3227;42.654;23.360;2023-04-07T13:21:43;94273.56;;;10.17;42.25
6389;BME280;3227;42.654;23.360;2023-04-07T13:24:10;94274.38;;;10.42;42.08
6389;BME280;3227;42.654;23.360;2023-04-07T13:26:37;94274.34;;;10.49;42.34